Time;durP1;ratioP1;P1;durP2;ratioP2;P2;SDS_P1;SDS_P2;PMS_P1;PMS_P2;Temp;Humidity;BMP_temperature;BMP_pressure;BME280_temperature;BME280_humidity;BME280_pressure;Samples;Min_cycle;Max_cycle;Signal;HPM_P1;HPM_P2
2021/07/07 00:01:16;;;;;;;15.63;9.98;;;;;;;22.87;60.63;99796.75;5108934;28;20034;-25
2021/07/07 00:03:42;;;;;;;16.02;11.10;;;;;;;22.96;59.97;99782.44;5108795;28;20092;-24
2021/07/07 00:06:07;;;;;;;16.73;9.75;;;;;;;22.78;61.05;99797.78;5108738;28;20023;-24
2021/07/07 00:08:33;;;;;;;17.05;10.38;;;;;;;22.35;62.19;99800.91;5108843;28;20089;-24
2021/07/07 00:10:59;;;;;;;17.27;9.82;;;;;;;21.97;63.63;99796.47;5108700;28;20127;-24
2021/07/07 00:13:25;;;;;;;14.55;9.95;;;;;;;21.88;64.02;99795.56;5108389;28;20089;-24
2021/07/07 00:15:50;;;;;;;17.27;9.85;;;;;;;22.44;61.82;99794.47;5108216;28;20039;-24
2021/07/07 00:18:16;;;;;;;15.15;10.63;;;;;;;22.75;61.53;99799.22;5108796;28;20489;-31
2021/07/07 00:23:11;;;;;;;15.85;10.95;;;;;;;22.17;63.33;99789.00;5108640;28;20127;-24
2021/07/07 00:25:36;;;;;;;14.63;10.25;;;;;;;22.56;61.51;99801.28;5108654;28;20028;-24
2021/07/07 00:28:02;;;;;;;13.02;9.35;;;;;;;22.28;62.82;99812.19;5108408;28;20036;-25
2021/07/07 00:30:28;;;;;;;12.68;8.73;;;;;;;22.22;63.20;99808.72;5108373;28;20030;-24
2021/07/07 00:32:54;;;;;;;12.85;9.07;;;;;;;22.37;62.25;99793.25;5108092;28;20028;-24
2021/07/07 00:35:20;;;;;;;13.27;8.90;;;;;;;22.70;60.75;99795.81;5108201;28;20042;-24
2021/07/07 00:37:45;;;;;;;12.93;9.10;;;;;;;22.56;61.88;99814.88;5107945;28;20411;-24
2021/07/07 00:40:11;;;;;;;11.77;8.65;;;;;;;22.17;63.55;99817.00;5108163;28;20042;-24
2021/07/07 00:42:37;;;;;;;11.90;8.85;;;;;;;22.45;62.13;99817.81;5107795;28;20114;-24
2021/07/07 00:45:03;;;;;;;13.38;9.13;;;;;;;22.11;63.50;99825.53;5107945;28;20027;-24
2021/07/07 00:47:29;;;;;;;12.60;9.55;;;;;;;21.69;64.61;99819.28;5108120;28;20046;-24
2021/07/07 00:49:54;;;;;;;18.55;9.75;;;;;;;21.58;64.66;99807.81;5107824;28;20027;-24
2021/07/07 00:52:20;;;;;;;18.38;10.80;;;;;;;21.57;64.79;99811.59;5108071;28;20047;-24
2021/07/07 00:54:46;;;;;;;18.88;11.38;;;;;;;21.76;64.04;99803.38;5090311;28;20035;-24
2021/07/07 00:57:13;;;;;;;15.40;10.82;;;;;;;22.26;62.86;99819.84;5089735;28;20058;-25
2021/07/07 00:59:39;;;;;;;16.02;10.57;;;;;;;21.70;64.60;99818.16;5089483;28;20024;-25
2021/07/07 01:02:04;;;;;;;16.48;10.43;;;;;;;22.29;61.96;99807.56;5089757;28;20040;-25
2021/07/07 01:04:30;;;;;;;16.92;11.10;;;;;;;22.37;61.58;99823.97;5107861;28;20440;-25
2021/07/07 01:06:55;;;;;;;14.35;9.40;;;;;;;22.60;60.66;99824.03;5107702;28;20042;-25
2021/07/07 01:09:21;;;;;;;16.17;10.80;;;;;;;22.81;60.34;99835.25;5108331;28;20834;-25
2021/07/07 01:11:46;;;;;;;14.90;9.32;;;;;;;22.18;62.57;99829.47;5107408;28;20043;-24
2021/07/07 01:14:12;;;;;;;15.57;10.82;;;;;;;22.40;61.57;99828.78;5089540;28;20027;-25
2021/07/07 01:16:41;;;;;;;16.67;10.15;;;;;;;21.95;63.12;99820.41;5107717;28;20081;-25
2021/07/07 01:19:06;;;;;;;15.73;10.63;;;;;;;22.30;61.83;99831.72;5107639;28;20115;-25
2021/07/07 01:21:33;;;;;;;14.85;10.15;;;;;;;22.06;62.50;99821.81;5107547;28;20027;-25
2021/07/07 01:23:58;;;;;;;19.10;12.98;;;;;;;22.16;62.40;99830.88;5089207;28;20479;-24
2021/07/07 01:26:24;;;;;;;32.75;18.98;;;;;;;21.95;62.47;99816.91;5107630;28;20043;-24
2021/07/07 01:28:49;;;;;;;32.00;20.85;;;;;;;21.41;64.57;99832.72;5107411;28;20024;-24
2021/07/07 01:31:15;;;;;;;28.08;18.48;;;;;;;21.49;64.47;99832.06;5107563;28;20035;-24
2021/07/07 01:33:40;;;;;;;25.20;16.98;;;;;;;21.23;65.52;99831.69;5107146;28;20023;-24
2021/07/07 01:36:06;;;;;;;30.00;17.92;;;;;;;21.49;64.96;99832.06;5107570;28;20035;-24
2021/07/07 01:38:31;;;;;;;33.90;18.92;;;;;;;21.69;64.42;99840.97;5107542;28;20032;-24
2021/07/07 01:40:58;;;;;;;38.40;22.80;;;;;;;21.59;63.94;99834.63;5107463;28;20104;-24
2021/07/07 01:43:23;;;;;;;33.30;19.67;;;;;;;22.03;62.84;99832.50;5089247;28;20028;-24
2021/07/07 01:45:49;;;;;;;24.77;15.52;;;;;;;21.87;62.66;99823.81;5107265;28;20031;-24
2021/07/07 01:48:14;;;;;;;29.08;17.67;;;;;;;22.31;61.12;99833.28;5107477;28;20506;-24
2021/07/07 01:50:40;;;;;;;26.73;16.23;;;;;;;22.07;61.62;99828.88;5107716;28;20096;-24
2021/07/07 01:53:05;;;;;;;23.65;14.70;;;;;;;22.29;60.94;99830.09;5107688;28;20024;-24
2021/07/07 01:55:31;;;;;;;20.30;13.70;;;;;;;22.43;60.29;99833.63;5109530;28;20798;-24
2021/07/07 01:57:56;;;;;;;25.17;14.35;;;;;;;22.05;61.87;99846.56;5111137;28;20158;-24
2021/07/07 02:00:24;;;;;;;20.63;14.07;;;;;;;22.03;61.33;99838.72;5111211;28;20031;-25
2021/07/07 02:02:50;;;;;;;23.98;14.45;;;;;;;22.67;60.08;99849.66;5111269;28;20102;-25
2021/07/07 02:05:15;;;;;;;23.17;14.82;;;;;;;22.37;60.49;99839.44;5111194;28;20619;-24
2021/07/07 02:07:41;;;;;;;20.63;14.38;;;;;;;22.49;60.56;99861.47;5110957;28;20036;-24
2021/07/07 02:10:09;;;;;;;22.10;16.75;;;;;;;22.07;61.77;99845.16;5110971;28;20465;-24
2021/07/07 02:12:34;;;;;;;;;;;;;;;22.23;61.75;99858.41;5111125;28;20044;-24
2021/07/07 02:15:01;;;;;;;39.88;22.77;;;;;;;22.11;61.60;99845.38;5111056;28;19926;-24
2021/07/07 02:17:27;;;;;;;82.75;48.53;;;;;;;22.27;60.33;99856.75;5110836;28;20514;-24
2021/07/07 02:19:52;;;;;;;83.63;49.85;;;;;;;21.93;61.74;99870.69;5110570;28;20031;-24
2021/07/07 02:22:18;;;;;;;52.65;31.30;;;;;;;21.41;63.53;99870.69;5110791;28;20036;-24
2021/07/07 02:24:43;;;;;;;31.90;20.70;;;;;;;21.22;64.29;99874.25;5110871;28;20032;-24
2021/07/07 02:27:09;;;;;;;29.63;17.42;;;;;;;21.30;64.23;99872.78;5110795;28;20024;-24
2021/07/07 02:29:34;;;;;;;33.03;18.00;;;;;;;21.26;64.75;99872.56;5110700;28;20024;-24
2021/07/07 02:32:00;;;;;;;25.98;16.75;;;;;;;21.54;63.27;99866.47;5110547;28;20019;-24
2021/07/07 02:34:25;;;;;;;26.73;15.18;;;;;;;21.48;63.29;99882.03;5110412;28;20032;-24
2021/07/07 02:36:51;;;;;;;26.70;15.00;;;;;;;21.45;63.39;99878.00;5110945;28;20038;-24
2021/07/07 02:39:16;;;;;;;22.67;14.50;;;;;;;21.63;63.30;99873.63;5110968;28;20035;-24
2021/07/07 02:41:42;;;;;;;20.00;12.77;;;;;;;21.44;63.29;99881.81;5110229;28;20031;-24
2021/07/07 02:44:07;;;;;;;20.52;13.38;;;;;;;20.86;65.89;99882.91;5110515;28;20853;-24
2021/07/07 02:46:33;;;;;;;28.30;13.98;;;;;;;20.50;66.70;99879.81;5110368;28;20030;-24
2021/07/07 02:48:58;;;;;;;36.67;14.07;;;;;;;20.37;67.67;99881.31;5110546;28;20118;-24
2021/07/07 02:51:24;;;;;;;34.10;14.68;;;;;;;20.25;67.90;99878.22;5110314;28;20035;-24
2021/07/07 02:53:49;;;;;;;24.52;15.50;;;;;;;20.86;65.97;99880.19;5110087;28;20159;-24
2021/07/07 02:56:15;;;;;;;27.10;14.55;;;;;;;21.32;64.24;99880.63;5110236;28;20028;-24
2021/07/07 02:58:40;;;;;;;23.65;15.00;;;;;;;21.07;64.45;99883.41;5110240;28;20054;-24
2021/07/07 03:01:06;;;;;;;25.60;15.30;;;;;;;20.43;66.12;99872.03;5110054;28;20028;-24
2021/07/07 03:03:31;;;;;;;23.20;16.70;;;;;;;20.52;65.61;99876.81;5109949;28;20094;-24
2021/07/07 03:06:00;;;;;;;23.25;14.98;;;;;;;20.30;66.26;99864.59;5091278;28;20027;-24
2021/07/07 03:08:27;;;;;;;23.38;15.35;;;;;;;20.28;66.80;99889.25;5110025;28;20483;-24
2021/07/07 03:10:53;;;;;;;21.58;14.52;;;;;;;20.49;66.29;99886.31;5109911;28;20023;-24
2021/07/07 03:13:19;;;;;;;21.10;14.23;;;;;;;20.70;65.76;99883.38;5109719;28;20054;-24
2021/07/07 03:15:45;;;;;;;17.30;12.63;;;;;;;21.16;64.65;99891.69;5109643;28;20036;-24
2021/07/07 03:18:10;;;;;;;16.45;11.98;;;;;;;20.91;65.15;99892.06;5109836;28;20130;-24
2021/07/07 03:20:37;;;;;;;17.08;12.25;;;;;;;20.86;65.56;99887.50;5110365;28;20375;-25
2021/07/07 03:23:03;;;;;;;16.73;12.27;;;;;;;20.63;66.47;99886.44;5091812;28;20027;-24
2021/07/07 03:25:29;;;;;;;17.88;13.13;;;;;;;20.89;65.88;99878.00;5109738;28;20032;-24
2021/07/07 03:27:54;;;;;;;20.25;12.77;;;;;;;21.23;65.16;99894.06;5109426;28;20038;-24
2021/07/07 03:30:20;;;;;;;22.02;14.90;;;;;;;21.38;64.92;99899.22;5109521;28;20031;-24
2021/07/07 03:32:46;;;;;;;19.70;14.32;;;;;;;21.15;65.06;99890.09;5108956;28;20035;-24
2021/07/07 03:35:11;;;;;;;23.17;15.10;;;;;;;20.80;66.19;99894.09;5109292;28;20468;-24
2021/07/07 03:37:37;;;;;;;19.02;13.40;;;;;;;20.63;67.00;99897.28;5091282;28;20031;-24
2021/07/07 03:40:04;;;;;;;21.85;15.38;;;;;;;20.72;66.85;99886.59;5109068;28;20031;-24
2021/07/07 03:42:29;;;;;;;24.13;15.55;;;;;;;20.47;68.02;99889.31;5109473;28;20024;-24
2021/07/07 03:44:54;;;;;;;19.13;13.65;;;;;;;20.67;67.33;99899.13;5091053;28;20031;-24
2021/07/07 03:47:20;;;;;;;16.02;11.85;;;;;;;20.59;67.23;99886.22;5109143;28;20467;-24
2021/07/07 03:49:45;;;;;;;13.15;11.68;;;;;;;20.21;69.02;99893.41;5108875;28;20051;-24
2021/07/07 03:52:11;;;;;;;14.43;10.70;;;;;;;20.14;69.79;99892.94;5109073;28;20040;-24
2021/07/07 03:54:37;;;;;;;15.57;11.52;;;;;;;20.53;68.55;99900.09;5109100;28;20028;-24
2021/07/07 03:57:02;;;;;;;15.60;10.88;;;;;;;20.47;68.65;99893.91;5109143;28;20043;-24
2021/07/07 03:59:28;;;;;;;14.57;10.82;;;;;;;20.96;67.50;99905.53;5109244;28;20028;-24
2021/07/07 04:01:53;;;;;;;25.05;15.65;;;;;;;21.24;66.76;99909.22;5108958;28;20042;-24
2021/07/07 04:04:19;;;;;;;24.55;14.18;;;;;;;21.43;65.79;99901.09;5109127;28;20032;-24
2021/07/07 04:06:45;;;;;;;15.75;10.20;;;;;;;21.54;64.73;99909.88;5108960;28;20055;-24
2021/07/07 04:09:10;;;;;;;22.02;13.43;;;;;;;21.86;63.88;99917.22;5108654;28;20031;-24
2021/07/07 04:11:36;;;;;;;27.45;14.45;;;;;;;21.90;62.73;99903.84;5108871;28;20123;-24
2021/07/07 04:14:01;;;;;;;18.88;12.10;;;;;;;22.26;62.38;99907.56;5108218;28;20055;-24
2021/07/07 04:16:27;;;;;;;16.10;9.27;;;;;;;22.52;60.77;99911.72;5108719;28;20043;-24
2021/07/07 04:18:52;;;;;;;11.13;8.48;;;;;;;22.56;61.34;99912.72;5089934;28;20031;-25
2021/07/07 04:21:18;;;;;;;10.52;8.02;;;;;;;22.65;60.70;99913.59;5108545;28;20455;-24
2021/07/07 04:23:43;;;;;;;11.23;8.30;;;;;;;22.75;59.53;99915.31;5108782;28;20062;-24
2021/07/07 04:26:09;;;;;;;12.00;8.15;;;;;;;22.74;59.46;99911.78;5108513;28;20968;-24
2021/07/07 04:28:34;;;;;;;10.38;8.13;;;;;;;22.54;59.95;99912.22;5108427;28;20024;-24
2021/07/07 04:31:00;;;;;;;10.82;9.02;;;;;;;22.78;60.04;99910.06;5108572;28;20024;-24
2021/07/07 04:33:25;;;;;;;14.63;10.52;;;;;;;22.89;59.68;99926.19;5108372;28;20066;-24
2021/07/07 04:35:51;;;;;;;10.02;7.93;;;;;;;22.93;57.46;99925.25;5108555;28;20868;-26
2021/07/07 04:38:16;;;;;;;9.63;8.57;;;;;;;23.01;58.12;99935.44;5108493;28;20035;-24
2021/07/07 04:40:42;;;;;;;12.07;8.00;;;;;;;23.30;57.43;99933.47;5108366;28;20032;-24
2021/07/07 04:43:07;;;;;;;10.43;8.52;;;;;;;23.33;58.00;99938.28;5108132;28;20023;-24
2021/07/07 04:45:33;;;;;;;11.95;7.85;;;;;;;23.33;57.67;99936.34;5108223;28;20023;-24
2021/07/07 04:47:58;;;;;;;9.00;7.53;;;;;;;23.57;55.96;99932.56;5108066;28;20414;-24
2021/07/07 04:50:24;;;;;;;11.68;7.88;;;;;;;23.69;55.31;99946.41;5108131;28;20398;-24
2021/07/07 04:52:49;;;;;;;11.60;8.68;;;;;;;24.09;54.50;99946.53;5108058;28;20399;-24
2021/07/07 04:55:15;;;;;;;11.55;8.23;;;;;;;24.00;55.07;99942.94;5107977;28;20035;-24
2021/07/07 04:57:42;;;;;;;9.35;7.80;;;;;;;24.00;54.73;99946.47;5107885;28;20392;-24
2021/07/07 05:00:14;;;;;;;11.23;7.78;;;;;;;24.18;53.61;99957.47;5107790;28;20042;-24
2021/07/07 05:02:41;;;;;;;14.50;7.35;;;;;;;24.44;53.63;99955.69;5107877;28;20427;-24
2021/07/07 05:05:07;;;;;;;11.90;7.50;;;;;;;24.76;52.95;99961.91;5107797;28;20031;-24
2021/07/07 05:07:33;;;;;;;15.05;7.85;;;;;;;24.90;52.62;99966.44;5107832;28;20044;-24
2021/07/07 05:09:59;;;;;;;9.57;6.82;;;;;;;24.45;53.29;99951.81;5107945;28;20028;-24
2021/07/07 05:12:26;;;;;;;8.30;6.63;;;;;;;24.39;53.34;99957.72;5107134;28;20055;-24
2021/07/07 05:14:51;;;;;;;10.13;6.75;;;;;;;24.47;53.05;99965.16;5107752;28;20035;-24
2021/07/07 05:17:16;;;;;;;10.40;7.15;;;;;;;24.51;53.52;99949.00;5108017;28;20062;-24
2021/07/07 05:19:42;;;;;;;10.38;7.03;;;;;;;24.53;52.06;99963.91;5107619;28;20043;-24
2021/07/07 05:22:07;;;;;;;8.35;6.90;;;;;;;24.67;51.49;99953.69;5089360;28;20042;-24
2021/07/07 05:24:33;;;;;;;9.82;6.90;;;;;;;24.78;52.45;99961.59;5107735;28;20015;-24
2021/07/07 05:27:00;;;;;;;10.82;6.90;;;;;;;24.91;51.99;99973.50;5107781;28;20484;-24
2021/07/07 05:29:26;;;;;;;9.98;6.65;;;;;;;24.76;51.77;99978.25;5109660;28;20032;-24
2021/07/07 05:31:53;;;;;;;8.95;7.35;;;;;;;25.00;51.62;99955.22;5111949;28;20051;-24
2021/07/07 05:34:19;;;;;;;9.73;7.75;;;;;;;25.15;50.33;99962.97;5112006;28;20057;-24
2021/07/07 05:36:44;;;;;;;15.70;9.57;;;;;;;25.40;49.98;99979.72;5112000;28;20043;-24
2021/07/07 05:39:10;;;;;;;12.82;8.73;;;;;;;25.63;49.62;99983.88;5111986;28;20032;-24
2021/07/07 05:41:35;;;;;;;20.63;16.50;;;;;;;25.37;51.08;99974.88;5111821;28;20063;-24
2021/07/07 05:44:01;;;;;;;12.45;10.65;;;;;;;25.46;50.33;99987.44;5111738;28;20539;-24
2021/07/07 05:46:26;;;;;;;11.13;7.53;;;;;;;25.26;50.49;99975.19;5111670;28;20032;-24
2021/07/07 05:48:52;;;;;;;10.02;7.15;;;;;;;25.26;50.46;99969.75;5111539;28;20387;-24
2021/07/07 05:51:17;;;;;;;20.20;13.82;;;;;;;25.40;50.78;99975.06;5111436;28;20028;-24
2021/07/07 05:53:42;;;;;;;17.15;12.27;;;;;;;25.38;50.93;99976.50;5111178;28;20035;-24
2021/07/07 05:56:08;;;;;;;11.05;8.75;;;;;;;25.41;50.45;99976.66;5111507;28;20038;-24
2021/07/07 05:58:34;;;;;;;9.35;7.05;;;;;;;25.23;51.19;99964.13;5111689;28;20081;-24
2021/07/07 06:01:00;;;;;;;32.00;22.20;;;;;;;25.64;50.26;99979.22;5111474;28;20070;-24
2021/07/07 06:03:25;;;;;;;36.55;25.65;;;;;;;25.87;49.35;99974.41;5111355;28;20043;-24
2021/07/07 06:05:51;;;;;;;27.13;18.60;;;;;;;26.22;48.62;99979.81;5110801;28;20031;-24
2021/07/07 06:08:16;;;;;;;17.35;12.60;;;;;;;26.30;48.88;99968.06;5111841;28;20028;-24
2021/07/07 06:10:43;;;;;;;16.67;10.48;;;;;;;26.35;49.12;99978.78;5111675;28;20039;-24
2021/07/07 06:13:08;;;;;;;16.88;12.57;;;;;;;26.57;48.43;99974.22;5111027;28;20047;-24
2021/07/07 06:15:36;;;;;;;29.75;21.50;;;;;;;26.52;47.62;99969.75;5111040;28;20032;-24
2021/07/07 06:18:03;;;;;;;17.95;12.15;;;;;;;26.69;46.18;99963.41;5111151;28;20041;-24
2021/07/07 06:20:29;;;;;;;14.65;9.30;;;;;;;26.91;47.67;99969.72;5111243;28;20138;-24
2021/07/07 06:22:54;;;;;;;16.10;12.50;;;;;;;27.24;46.09;99981.63;5111095;28;20157;-24
2021/07/07 06:25:20;;;;;;;29.65;21.75;;;;;;;27.01;45.93;99986.56;5110842;28;20122;-24
2021/07/07 06:27:46;;;;;;;10.90;8.57;;;;;;;27.02;45.22;99998.31;5110672;28;20114;-24
2021/07/07 06:30:13;;;;;;;14.52;11.45;;;;;;;27.23;45.89;99988.22;5110847;28;20024;-24
2021/07/07 06:32:39;;;;;;;12.95;11.20;;;;;;;27.55;43.58;99991.38;5110771;28;20027;-24
2021/07/07 06:35:05;;;;;;;33.75;23.38;;;;;;;27.50;44.22;99991.56;5110633;28;20020;-24
2021/07/07 06:37:31;;;;;;;45.38;30.98;;;;;;;27.70;43.55;99989.94;5110777;28;20384;-25
2021/07/07 06:39:57;;;;;;;25.60;17.73;;;;;;;27.42;43.84;99973.25;5109997;28;20039;-24
2021/07/07 06:42:22;;;;;;;15.10;9.70;;;;;;;27.76;44.00;99988.59;5110063;28;20035;-24
2021/07/07 06:44:48;;;;;;;12.25;8.93;;;;;;;27.87;42.55;99989.03;5110696;28;20115;-24
2021/07/07 06:47:13;;;;;;;11.68;7.05;;;;;;;27.88;42.32;99993.34;5110557;28;20038;-24
2021/07/07 06:49:39;;;;;;;11.05;7.10;;;;;;;28.00;43.62;99998.88;5110173;28;20101;-24
2021/07/07 06:52:04;;;;;;;12.55;7.47;;;;;;;28.08;43.32;100001.88;5110432;28;20035;-24
2021/07/07 06:54:30;;;;;;;14.20;8.80;;;;;;;27.99;42.63;99997.28;5110207;28;20058;-24
2021/07/07 06:56:55;;;;;;;12.65;8.18;;;;;;;27.89;43.77;99994.97;5110337;28;20115;-24
2021/07/07 06:59:21;;;;;;;10.23;6.85;;;;;;;28.33;43.12;99994.50;5110728;28;20027;-25
2021/07/07 07:01:46;;;;;;;8.45;6.43;;;;;;;28.27;43.44;99996.66;5110205;28;20035;-24
2021/07/07 07:04:12;;;;;;;11.45;8.57;;;;;;;28.30;43.27;100001.47;5110214;28;20038;-24
2021/07/07 07:06:37;;;;;;;9.95;7.20;;;;;;;28.35;44.09;99993.03;5110473;28;20494;-24
2021/07/07 07:09:04;;;;;;;10.93;7.10;;;;;;;28.68;42.95;99999.59;5110408;28;20035;-24
2021/07/07 07:11:29;;;;;;;10.93;8.15;;;;;;;29.16;41.69;100001.56;5091648;28;20032;-24
2021/07/07 07:13:55;;;;;;;13.80;9.60;;;;;;;29.36;42.09;99986.06;5109670;28;20522;-24
2021/07/07 07:16:21;;;;;;;8.77;7.30;;;;;;;29.67;43.69;100000.25;5110004;28;20032;-24
2021/07/07 07:18:47;;;;;;;9.65;7.35;;;;;;;29.51;41.44;99995.50;5109778;28;20042;-24
2021/07/07 07:21:12;;;;;;;7.85;6.50;;;;;;;29.37;41.73;100009.63;5109914;28;20020;-24
2021/07/07 07:23:38;;;;;;;7.40;5.88;;;;;;;29.45;42.76;100008.69;5109767;28;20106;-24
2021/07/07 07:26:03;;;;;;;9.02;5.30;;;;;;;29.49;40.17;100014.28;5109433;28;20051;-24
2021/07/07 07:28:29;;;;;;;6.65;5.07;;;;;;;29.79;41.49;100008.47;5108825;28;20423;-24
2021/07/07 07:30:58;;;;;;;8.30;5.43;;;;;;;29.63;40.91;100006.47;5108612;28;20019;-24
2021/07/07 07:33:24;;;;;;;8.40;5.75;;;;;;;29.73;40.69;100018.94;5109752;28;20479;-24
2021/07/07 07:35:49;;;;;;;7.93;5.55;;;;;;;29.15;40.17;99996.41;5109685;28;20088;-24
2021/07/07 07:38:15;;;;;;;8.55;5.65;;;;;;;29.69;41.58;100011.69;5109165;28;20467;-24
2021/07/07 07:40:43;;;;;;;6.38;5.15;;;;;;;29.63;39.75;100022.16;5108962;28;20038;-24
2021/07/07 07:43:10;;;;;;;8.85;5.35;;;;;;;29.45;40.84;100002.41;5109323;28;20032;-24
2021/07/07 07:45:37;;;;;;;8.65;4.50;;;;;;;29.84;38.91;100011.78;5109206;28;20032;-24
2021/07/07 07:48:03;;;;;;;8.15;5.43;;;;;;;29.72;40.33;100013.78;5108194;28;20038;-24
2021/07/07 07:50:29;;;;;;;11.45;6.75;;;;;;;29.70;39.68;100010.56;5109320;28;20118;-24
2021/07/07 07:52:54;;;;;;;7.78;5.65;;;;;;;30.15;39.22;100014.97;5108526;28;20111;-24
2021/07/07 07:55:20;;;;;;;6.57;5.50;;;;;;;29.92;40.14;100018.28;5109451;28;20226;-24
2021/07/07 07:57:45;;;;;;;7.28;5.10;;;;;;;30.02;38.37;100003.25;5108971;28;20156;-24
2021/07/07 08:00:24;;;;;;;7.85;5.90;;;;;;;29.97;39.05;100019.97;5109067;28;20463;-24
2021/07/07 08:02:50;;;;;;;9.60;6.60;;;;;;;30.42;37.62;100011.41;5109104;28;20503;-24
2021/07/07 08:05:15;;;;;;;7.05;5.45;;;;;;;30.81;37.88;100008.81;5109099;28;20041;-24
2021/07/07 08:07:41;;;;;;;12.25;8.10;;;;;;;30.86;37.00;100020.72;5108901;28;20085;-24
2021/07/07 08:10:08;;;;;;;11.57;6.97;;;;;;;30.79;38.51;100019.38;5109038;28;20024;-24
2021/07/07 08:12:33;;;;;;;7.55;5.88;;;;;;;31.28;36.63;100031.13;5108679;28;20043;-24
2021/07/07 08:14:59;;;;;;;8.73;6.45;;;;;;;31.36;36.57;100013.59;5108724;28;20487;-24
2021/07/07 08:17:24;;;;;;;6.78;5.82;;;;;;;31.51;35.39;100021.03;5109085;28;20036;-24
2021/07/07 08:19:50;;;;;;;7.35;5.80;;;;;;;31.83;34.91;100024.44;5108698;28;20024;-24
2021/07/07 08:22:16;;;;;;;9.80;5.88;;;;;;;31.92;35.36;100026.97;5108713;28;20414;-24
2021/07/07 08:24:42;;;;;;;7.40;5.88;;;;;;;31.72;35.18;100017.13;5108533;28;20034;-24
2021/07/07 08:27:08;;;;;;;7.40;5.70;;;;;;;32.00;35.99;100017.72;5108521;28;20039;-24
2021/07/07 08:29:35;;;;;;;8.55;5.75;;;;;;;32.01;35.60;100019.28;5108536;28;20039;-24
2021/07/07 08:32:01;;;;;;;8.50;5.70;;;;;;;32.04;35.32;100028.81;5108486;28;20035;-24
2021/07/07 08:34:26;;;;;;;10.40;5.57;;;;;;;32.42;33.86;100027.13;5108465;28;20394;-24
2021/07/07 08:36:52;;;;;;;7.32;5.57;;;;;;;32.44;33.44;100030.31;5108121;28;20024;-24
2021/07/07 08:39:17;;;;;;;6.63;5.15;;;;;;;32.35;33.19;100029.75;5107705;28;20089;-24
2021/07/07 08:41:43;;;;;;;7.28;5.78;;;;;;;32.61;33.38;100029.03;5107393;28;20032;-24
2021/07/07 08:44:08;;;;;;;10.00;6.63;;;;;;;32.37;34.89;100014.44;5108369;28;20494;-24
2021/07/07 08:46:34;;;;;;;18.58;6.45;;;;;;;32.22;35.00;100026.38;5110589;28;20088;-24
2021/07/07 08:49:00;;;;;;;11.18;6.60;;;;;;;32.13;34.90;100037.63;5108135;28;20031;-24
2021/07/07 08:51:25;;;;;;;11.07;7.80;;;;;;;32.22;35.24;100027.19;5107552;28;20032;-24
2021/07/07 08:53:51;;;;;;;7.60;5.82;;;;;;;32.74;33.45;100035.97;5108164;28;20031;-24
2021/07/07 08:56:17;;;;;;;10.25;5.88;;;;;;;33.17;33.31;100033.88;5089987;28;20023;-24
2021/07/07 08:58:42;;;;;;;9.25;5.95;;;;;;;33.11;34.30;100029.84;5108513;28;20778;-24
2021/07/07 09:01:08;;;;;;;7.28;5.32;;;;;;;33.53;32.56;100025.25;5108340;28;20763;-24
2021/07/07 09:03:33;;;;;;;7.35;5.28;;;;;;;33.54;30.76;100038.72;5107855;28;20039;-24
2021/07/07 09:06:04;;;;;;;7.25;4.82;;;;;;;33.67;31.37;100033.75;5107764;28;20032;-24
2021/07/07 09:08:35;;;;;;;7.13;5.68;;;;;;;33.92;29.85;100028.53;5108824;28;20031;-24
2021/07/07 09:11:28;;;;;;;7.55;5.40;;;;;;;33.60;32.06;100039.97;5107802;28;20031;-24
2021/07/07 09:14:13;;;;;;;9.13;5.18;;;;;;;33.35;32.23;100033.34;5107221;28;20434;-22
2021/07/07 09:16:47;;;;;;;7.40;5.80;;;;;;;33.14;32.90;100017.25;5089642;28;20044;-22
2021/07/07 09:19:16;;;;;;;8.68;5.88;;;;;;;33.03;31.32;100033.66;5107425;28;20035;-24
2021/07/07 09:21:46;;;;;;;7.38;5.68;;;;;;;33.04;31.45;100018.69;5107541;28;20032;-24
2021/07/07 09:24:17;;;;;;;9.10;6.22;;;;;;;33.37;31.48;100031.00;5108124;28;20501;-24
2021/07/07 09:26:43;;;;;;;8.88;6.10;;;;;;;33.65;32.12;100036.09;5090131;28;20604;-24
2021/07/07 09:29:08;;;;;;;10.30;6.53;;;;;;;34.01;31.78;100026.25;5108362;28;20092;-24
2021/07/07 09:31:35;;;;;;;6.63;5.35;;;;;;;34.14;31.66;100028.78;5107838;28;20038;-24
2021/07/07 09:34:24;;;;;;;8.20;5.53;;;;;;;33.93;32.43;100035.66;5107881;28;20080;-24
2021/07/07 09:36:52;;;;;;;7.25;5.28;;;;;;;34.14;32.82;100034.31;5090570;28;20036;-24
2021/07/07 09:39:18;;;;;;;8.93;6.07;;;;;;;34.05;30.47;100018.00;5107885;28;20024;-24
2021/07/07 09:41:45;;;;;;;12.82;5.68;;;;;;;34.40;32.93;100023.09;5108193;28;20144;-24
2021/07/07 09:44:10;;;;;;;8.57;5.32;;;;;;;34.59;31.86;100015.72;5108091;28;20016;-24
2021/07/07 09:46:36;;;;;;;7.50;5.53;;;;;;;34.99;31.10;100023.19;5107810;28;20410;-24
2021/07/07 09:49:02;;;;;;;6.55;5.07;;;;;;;35.51;29.83;100013.97;5107833;28;20061;-24
2021/07/07 09:51:27;;;;;;;9.98;4.97;;;;;;;34.89;30.23;100012.03;5107555;28;20036;-24
2021/07/07 09:53:53;;;;;;;6.95;4.85;;;;;;;34.74;31.02;100023.03;5107238;28;20402;-24
2021/07/07 09:56:18;;;;;;;5.93;4.30;;;;;;;34.97;31.12;100005.38;5107478;28;20549;-24
2021/07/07 09:58:44;;;;;;;6.03;4.30;;;;;;;34.97;30.48;99997.06;5107350;28;20031;-24
2021/07/07 10:01:09;;;;;;;6.43;4.82;;;;;;;35.40;31.10;100008.38;5089224;28;20479;-24
2021/07/07 10:03:35;;;;;;;6.40;4.60;;;;;;;35.18;31.17;100007.47;5107519;28;20487;-24
2021/07/07 10:06:02;;;;;;;5.28;3.80;;;;;;;35.34;30.28;100015.50;5089198;28;20039;-24
2021/07/07 10:08:27;;;;;;;;;;;;;;;35.32;31.25;100007.56;5107880;28;20034;-24
2021/07/07 10:10:53;;;;;;;9.67;3.50;;;;;;;35.68;28.44;100010.53;5089293;28;19916;-24
2021/07/07 10:13:18;;;;;;;5.22;2.90;;;;;;;35.68;27.36;100012.50;5071916;28;20056;-24
2021/07/07 10:15:46;;;;;;;6.75;3.40;;;;;;;34.88;28.43;99996.59;5090044;28;20036;-24
2021/07/07 10:18:11;;;;;;;5.97;3.67;;;;;;;34.42;30.08;100001.38;5093480;28;20445;-24
2021/07/07 10:20:37;;;;;;;16.20;4.70;;;;;;;33.73;30.75;99989.97;5111385;28;20027;-25
2021/07/07 10:23:04;;;;;;;8.55;4.20;;;;;;;34.32;31.41;100002.06;5093581;28;20027;-24
2021/07/07 10:25:30;;;;;;;7.25;3.92;;;;;;;34.78;31.76;99987.84;5111657;28;20964;-24
2021/07/07 10:27:58;;;;;;;5.63;3.67;;;;;;;35.34;30.53;99985.78;5093135;28;20116;-24
2021/07/07 10:30:56;;;;;;;4.35;3.38;;;;;;;35.25;28.99;99995.63;5111571;28;20046;-24
2021/07/07 10:33:27;;;;;;;6.18;3.60;;;;;;;35.58;29.16;100006.47;5110404;28;20055;-25
2021/07/07 10:36:14;;;;;;;7.40;3.70;;;;;;;36.20;28.53;100011.03;5110773;28;20601;-24
2021/07/07 10:38:40;;;;;;;6.82;3.80;;;;;;;36.34;28.61;100004.72;5110755;28;20069;-24
2021/07/07 10:41:05;;;;;;;6.80;4.07;;;;;;;36.56;28.14;100004.72;5111095;28;20138;-24
2021/07/07 10:43:45;;;;;;;9.15;4.35;;;;;;;35.80;28.93;99992.72;5092779;28;20024;-24
2021/07/07 10:46:11;;;;;;;6.05;4.03;;;;;;;35.34;30.95;100015.50;5110471;28;20479;-25
2021/07/07 10:48:37;;;;;;;7.72;3.90;;;;;;;35.13;30.44;100007.84;5110900;28;20036;-24
2021/07/07 10:51:12;;;;;;;5.75;4.15;;;;;;;35.39;30.73;100009.56;5111176;28;20168;-24
2021/07/07 10:53:37;;;;;;;4.93;3.78;;;;;;;35.67;28.38;100008.91;5110569;28;20023;-24
2021/07/07 10:56:04;;;;;;;6.57;3.72;;;;;;;36.19;29.50;100014.22;5110500;28;20097;-24
2021/07/07 10:58:37;;;;;;;7.45;4.40;;;;;;;35.63;29.11;100005.31;5110392;28;20031;-24
2021/07/07 11:01:35;;;;;;;17.65;4.97;;;;;;;35.34;30.70;100010.72;5110664;28;20067;-24
2021/07/07 11:04:01;;;;;;;7.88;4.43;;;;;;;36.08;29.15;100016.16;5110495;28;20055;-23
2021/07/07 11:06:39;;;;;;;5.40;3.65;;;;;;;35.88;29.36;100004.59;5110588;28;20024;-25
2021/07/07 11:09:15;;;;;;;5.28;3.90;;;;;;;35.24;30.21;100007.91;5110196;28;20032;-25
2021/07/07 11:11:43;;;;;;;9.10;4.57;;;;;;;35.28;30.62;100008.72;5110355;28;20142;-25
2021/07/07 11:14:13;;;;;;;6.43;4.10;;;;;;;35.78;29.70;100011.75;5110197;28;20040;-25
2021/07/07 11:16:46;;;;;;;7.40;4.07;;;;;;;36.35;29.63;100005.50;5110400;28;20038;-25
2021/07/07 11:19:43;;;;;;;4.95;3.80;;;;;;;36.87;28.00;100008.69;5109970;28;20053;-24
2021/07/07 11:22:09;;;;;;;7.13;4.10;;;;;;;36.79;28.79;99988.44;5110043;28;20031;-24